Time;durP1;ratioP1;P1;durP2;ratioP2;P2;SDS_P1;SDS_P2;PMS_P1;PMS_P2;Temp;Humidity;BMP_temperature;BMP_pressure;BME280_temperature;BME280_humidity;BME280_pressure;Samples;Min_cycle;Max_cycle;Signal;HPM_P1;HPM_P2
2022/06/03 00:01:29;;;;;;;8.75;5.93;;;;;;;23.03;87.21;99490.69;5089549;28;20195;-56
2022/06/03 00:04:10;;;;;;;9.07;7.15;;;;;;;23.05;87.25;99486.97;5088030;28;20195;-59
2022/06/03 00:06:54;;;;;;;7.70;6.57;;;;;;;22.96;88.03;99484.22;5089451;28;20197;-59
2022/06/03 00:09:46;;;;;;;9.50;6.88;;;;;;;22.84;88.50;99485.19;5089235;28;20227;-55
2022/06/03 00:12:42;;;;;;;8.93;6.95;;;;;;;22.76;88.56;99486.66;5089521;28;20229;-59
2022/06/03 00:15:25;;;;;;;8.07;6.05;;;;;;;22.63;89.53;99475.34;5085979;28;20219;-60
2022/06/03 00:18:18;;;;;;;7.57;6.80;;;;;;;22.54;89.68;99476.06;5069423;28;20188;-59
2022/06/03 00:20:57;;;;;;;7.53;6.85;;;;;;;22.56;89.13;99478.59;5069299;28;20206;-59
2022/06/03 00:23:51;;;;;;;12.70;7.40;;;;;;;22.59;88.24;99479.16;5069014;28;20202;-59
2022/06/03 00:26:38;;;;;;;5.68;5.28;;;;;;;22.65;87.78;99480.50;5060670;28;20204;-56
2022/06/03 00:29:21;;;;;;;7.07;6.13;;;;;;;22.79;86.27;99469.72;5069022;28;20222;-59
2022/06/03 00:32:10;;;;;;;6.75;5.40;;;;;;;22.76;85.77;99467.28;5069032;28;20295;-59
2022/06/03 00:35:01;;;;;;;5.65;5.28;;;;;;;22.73;85.19;99473.63;5068990;28;20227;-59
2022/06/03 00:37:35;;;;;;;8.00;5.47;;;;;;;22.69;85.67;99466.06;5068775;28;20219;-58
2022/06/03 00:40:21;;;;;;;6.15;5.32;;;;;;;22.66;85.12;99456.56;5068759;28;20195;-59
2022/06/03 00:43:14;;;;;;;6.28;5.43;;;;;;;22.58;85.93;99458.13;5068896;28;20198;-58
2022/06/03 00:46:10;;;;;;;11.70;5.32;;;;;;;22.54;86.32;99459.34;5021291;28;1355698;-60
2022/06/03 00:48:46;;;;;;;7.57;6.13;;;;;;;22.58;85.69;99460.78;5061391;28;20702;-56
2022/06/03 00:51:48;;;;;;;6.95;5.47;;;;;;;22.62;85.97;99465.72;5069653;28;20199;-56
2022/06/03 00:54:53;;;;;;;6.65;5.47;;;;;;;22.64;85.44;99460.28;5069732;28;20283;-57
2022/06/03 00:57:59;;;;;;;5.75;5.25;;;;;;;22.62;85.62;99465.72;5069665;28;20199;-55
2022/06/03 01:00:29;;;;;;;6.43;5.50;;;;;;;22.44;85.32;99436.28;5069620;28;20200;-59
2022/06/03 01:03:16;;;;;;;6.65;5.85;;;;;;;22.58;85.84;99474.00;5069560;28;20298;-59
2022/06/03 01:06:09;;;;;;;7.95;5.95;;;;;;;22.66;85.34;99466.31;5069288;28;20200;-60
2022/06/03 01:08:50;;;;;;;7.50;5.22;;;;;;;22.60;84.82;99461.50;5069315;28;20307;-56
2022/06/03 01:11:46;;;;;;;6.10;5.60;;;;;;;22.63;84.96;99462.09;5069496;28;20192;-55
2022/06/03 01:14:28;;;;;;;8.45;5.90;;;;;;;22.62;85.28;99465.72;5070460;28;20192;-55
2022/06/03 01:17:07;;;;;;;6.22;5.70;;;;;;;22.55;85.63;99458.38;5072856;28;20206;-59
2022/06/03 01:19:47;;;;;;;10.98;5.78;;;;;;;22.56;85.52;99460.91;5072931;28;20202;-54
2022/06/03 01:22:47;;;;;;;5.97;5.40;;;;;;;22.56;85.77;99452.13;5072810;28;20241;-58
2022/06/03 01:25:50;;;;;;;6.20;5.78;;;;;;;22.66;84.81;99461.88;5060738;28;20195;-56
2022/06/03 01:28:35;;;;;;;6.22;5.70;;;;;;;22.70;84.79;99457.16;5072664;28;20348;-59
2022/06/03 01:31:25;;;;;;;6.00;5.53;;;;;;;22.60;84.77;99453.56;5072698;28;20202;-55
2022/06/03 01:34:09;;;;;;;9.63;5.72;;;;;;;22.51;85.58;99460.41;5072873;28;20672;-55
2022/06/03 01:36:47;;;;;;;5.95;5.40;;;;;;;22.46;85.82;99454.63;5072582;28;20200;-59
2022/06/03 01:39:33;;;;;;;5.80;5.25;;;;;;;22.44;86.22;99452.13;5072908;28;20663;-56
2022/06/03 01:42:27;;;;;;;9.05;5.85;;;;;;;22.39;86.55;99449.00;5072619;28;20279;-59
2022/06/03 01:45:32;;;;;;;6.55;6.05;;;;;;;22.30;86.81;99436.50;5072378;28;20200;-59
2022/06/03 01:48:17;;;;;;;9.30;5.88;;;;;;;22.27;87.17;99446.47;5033707;28;20284;-55
2022/06/03 01:51:09;;;;;;;8.32;5.95;;;;;;;22.26;87.32;99443.00;5072279;28;20195;-58
2022/06/03 01:54:09;;;;;;;7.68;5.93;;;;;;;22.18;87.78;99440.09;5072436;28;20631;-59
2022/06/03 01:56:55;;;;;;;6.60;5.05;;;;;;;22.11;88.27;99446.00;4997956;28;20207;-56
2022/06/03 02:00:09;;;;;;;6.13;5.38;;;;;;;22.06;88.82;99448.97;5072382;28;20200;-56
2022/06/03 02:02:52;;;;;;;8.70;5.47;;;;;;;22.02;89.24;99451.00;4990693;28;20205;-57
2022/06/03 02:06:01;;;;;;;6.07;5.35;;;;;;;21.93;89.42;99450.84;5062021;28;20686;-59
2022/06/03 02:09:01;;;;;;;9.65;6.47;;;;;;;21.91;89.96;99453.59;5064543;28;20644;-59
2022/06/03 02:11:49;;;;;;;6.53;5.15;;;;;;;21.87;90.12;99449.53;5071978;28;20207;-59
2022/06/03 02:14:51;;;;;;;6.18;5.57;;;;;;;21.72;90.88;99448.88;5072108;28;20307;-56
2022/06/03 02:17:56;;;;;;;10.32;5.90;;;;;;;21.81;90.62;99457.06;5071995;28;20218;-59
2022/06/03 02:20:58;;;;;;;7.10;5.70;;;;;;;21.67;91.28;99456.31;5071210;28;20203;-56
2022/06/03 02:24:07;;;;;;;5.85;5.45;;;;;;;21.69;91.40;99459.69;5063037;28;20206;-55
2022/06/03 02:27:04;;;;;;;6.43;5.68;;;;;;;21.63;91.87;99449.59;5050199;28;20200;-58
2022/06/03 02:33:16;;;;;;;8.00;6.05;;;;;;;21.65;92.17;99463.53;5071443;28;20309;-56
2022/06/03 02:36:28;;;;;;;8.55;5.57;;;;;;;21.66;92.47;99459.09;5071494;28;20203;-56
2022/06/03 02:39:09;;;;;;;9.35;5.72;;;;;;;21.64;92.29;99456.56;5071852;28;20674;-55
2022/06/03 02:42:09;;;;;;;8.02;5.80;;;;;;;21.55;93.24;99462.53;5071510;28;20562;-55
2022/06/03 02:45:05;;;;;;;7.32;5.95;;;;;;;21.59;93.28;99463.97;5050183;28;20249;-56
2022/06/03 02:48:08;;;;;;;7.80;6.18;;;;;;;21.64;92.86;99461.84;5071174;28;20192;-57
2022/06/03 02:51:10;;;;;;;7.35;6.40;;;;;;;21.61;93.39;99462.06;5023855;28;20287;-59
2022/06/03 02:54:11;;;;;;;9.88;5.95;;;;;;;21.75;91.65;99471.59;5068158;28;20195;-59
2022/06/03 02:56:55;;;;;;;10.93;6.03;;;;;;;21.66;91.62;99464.38;5078505;28;20298;-60
2022/06/03 03:00:00;;;;;;;9.93;6.40;;;;;;;21.72;90.74;99467.38;5091174;28;20202;-59
2022/06/03 03:02:41;;;;;;;9.00;6.45;;;;;;;21.79;89.83;99464.25;5091104;28;20195;-59
2022/06/03 03:05:44;;;;;;;6.60;6.10;;;;;;;21.90;89.06;99472.22;5090714;28;20281;-60
2022/06/03 03:08:40;;;;;;;6.95;6.28;;;;;;;21.91;88.96;99479.19;5041448;28;20254;-60
2022/06/03 03:11:26;;;;;;;7.03;6.32;;;;;;;21.85;88.39;99458.53;5070723;28;20227;-56
2022/06/03 03:14:17;;;;;;;9.00;6.70;;;;;;;22.05;88.05;99489.59;5081848;28;20191;-59
2022/06/03 03:17:14;;;;;;;9.85;6.75;;;;;;;22.07;87.68;99488.53;5090567;28;20561;-59
2022/06/03 03:20:14;;;;;;;8.35;6.90;;;;;;;22.07;88.04;99493.81;5077090;28;20198;-56
2022/06/03 03:23:10;;;;;;;9.95;6.88;;;;;;;22.08;87.60;99487.56;5070933;28;20196;-56
2022/06/03 03:25:45;;;;;;;6.95;6.25;;;;;;;22.11;87.07;99498.88;5087539;28;20206;-59
2022/06/03 03:29:05;;;;;;;8.68;6.43;;;;;;;22.17;86.76;99501.03;5086812;28;20194;-59
2022/06/03 03:31:51;;;;;;;7.32;6.38;;;;;;;22.25;85.90;99504.75;4971257;28;20198;-59
2022/06/03 03:34:29;;;;;;;7.32;6.38;;;;;;;22.53;84.34;99513.22;4997466;28;20212;-59
2022/06/03 03:37:24;;;;;;;13.43;6.70;;;;;;;22.56;83.13;99487.38;5066697;28;20633;-59
2022/06/03 03:40:37;;;;;;;7.45;6.68;;;;;;;22.78;82.33;99513.84;5086092;28;20656;-55
2022/06/03 03:44:00;;;;;;;6.95;6.22;;;;;;;22.99;80.74;99521.03;5087035;28;20497;-56
2022/06/03 03:47:18;;;;;;;12.23;7.00;;;;;;;23.09;79.29;99506.94;5062581;28;20218;-56
2022/06/03 03:50:33;;;;;;;6.85;6.22;;;;;;;23.86;76.01;99534.16;5044235;28;20608;-56
2022/06/03 03:53:29;;;;;;;12.18;6.82;;;;;;;25.83;66.16;99536.41;5044467;28;20189;-59
2022/06/03 03:56:36;;;;;;;9.00;6.28;;;;;;;27.88;57.47;99550.41;5086431;28;20207;-55
2022/06/03 03:59:44;;;;;;;6.75;6.15;;;;;;;30.08;49.07;99554.97;5087330;28;20279;-59
2022/06/03 04:02:59;;;;;;;12.65;5.93;;;;;;;31.94;43.71;99569.56;5081271;28;20208;-59
2022/06/03 04:06:17;;;;;;;9.43;5.55;;;;;;;33.43;40.66;99564.97;5068609;28;20704;-64
2022/06/03 04:09:14;;;;;;;7.63;5.55;;;;;;;34.70;37.54;99571.34;5006013;28;20205;-60
2022/06/03 04:11:59;;;;;;;8.38;5.57;;;;;;;35.37;35.75;99576.06;4975180;28;20201;-57
2022/06/03 04:15:07;;;;;;;8.10;5.80;;;;;;;36.20;34.01;99577.50;5056580;28;20246;-58
2022/06/03 04:18:07;;;;;;;7.43;5.63;;;;;;;36.41;33.57;99585.41;5077607;28;20191;-61
2022/06/03 04:21:24;;;;;;;10.57;5.78;;;;;;;36.65;32.64;99598.28;5075888;28;20279;-58
2022/06/03 04:24:21;;;;;;;6.45;5.40;;;;;;;37.81;31.05;99594.78;5021418;28;20229;-58
2022/06/03 04:27:23;;;;;;;5.72;5.22;;;;;;;38.23;30.50;99604.94;5024458;28;20219;-58
2022/06/03 04:30:17;;;;;;;10.05;5.65;;;;;;;38.54;29.69;99603.22;5079970;28;20210;-60
2022/06/03 04:33:22;;;;;;;9.25;5.22;;;;;;;38.64;29.79;99615.22;5089104;28;20222;-61
2022/06/03 04:36:29;;;;;;;5.97;5.53;;;;;;;39.62;28.36;99617.06;5057520;28;20195;-58
2022/06/03 04:39:32;;;;;;;5.22;4.65;;;;;;;40.01;27.66;99627.38;5090166;28;20220;-61
2022/06/03 04:42:40;;;;;;;5.68;4.38;;;;;;;39.92;27.60;99623.34;5069077;28;20202;-61
2022/06/03 04:45:57;;;;;;;8.38;4.82;;;;;;;38.93;28.16;99624.53;5068705;28;20206;-58
2022/06/03 04:49:03;;;;;;;10.63;6.10;;;;;;;39.14;29.16;99631.44;5085557;28;20191;-58
2022/06/03 04:52:11;;;;;;;7.20;6.22;;;;;;;38.80;29.74;99636.38;5093777;28;20290;-61
2022/06/03 04:55:40;;;;;;;6.78;6.18;;;;;;;39.70;28.73;99638.47;5068966;28;20278;-61
2022/06/03 04:58:49;;;;;;;6.15;5.63;;;;;;;39.86;28.44;99640.56;5093546;28;20194;-57
2022/06/03 05:02:13;;;;;;;10.55;6.60;;;;;;;40.18;28.29;99644.66;5092632;28;20234;-58
2022/06/03 05:05:28;;;;;;;12.93;7.47;;;;;;;39.66;29.12;99632.66;5084330;28;20200;-59
2022/06/03 05:08:35;;;;;;;10.88;8.15;;;;;;;40.02;28.39;99639.91;5091597;28;20198;-62
2022/06/03 05:11:40;;;;;;;15.90;7.90;;;;;;;40.76;27.54;99637.69;5090390;28;20222;-61
2022/06/03 05:15:06;;;;;;;7.75;6.95;;;;;;;40.77;27.90;99651.06;5091869;28;20282;-58
2022/06/03 05:18:01;;;;;;;11.55;7.22;;;;;;;41.55;26.54;99656.06;5091513;28;20281;-59
2022/06/03 05:20:55;;;;;;;9.73;5.20;;;;;;;41.97;25.80;99655.81;5090466;28;20559;-58
2022/06/03 05:23:46;;;;;;;7.90;5.00;;;;;;;41.30;26.16;99650.09;5092213;28;20206;-58
2022/06/03 05:26:41;;;;;;;16.50;11.85;;;;;;;39.75;28.09;99641.31;5092663;28;20785;-61
2022/06/03 05:29:46;;;;;;;5.95;5.22;;;;;;;39.69;28.11;99648.53;5091663;28;20203;-61
2022/06/03 05:32:48;;;;;;;8.95;4.60;;;;;;;40.99;26.99;99645.84;5064690;28;20195;-60
2022/06/03 05:36:12;;;;;;;9.00;4.63;;;;;;;42.17;25.61;99655.34;5092748;28;20198;-62
2022/06/03 05:39:07;;;;;;;5.13;4.43;;;;;;;42.83;24.54;99646.34;5030107;28;20705;-57
2022/06/03 05:45:07;;;;;;;9.80;4.93;;;;;;;41.72;26.31;99647.13;5092487;28;20205;-57
2022/06/03 05:47:41;;;;;;;14.27;4.70;;;;;;;41.07;27.03;99641.94;5092845;28;20199;-56
2022/06/03 05:50:13;;;;;;;11.32;4.97;;;;;;;41.72;25.94;99649.84;5092495;28;20222;-57
2022/06/03 05:53:02;;;;;;;11.15;4.70;;;;;;;42.35;25.41;99657.81;5092471;28;20282;-58
2022/06/03 05:55:40;;;;;;;6.07;4.07;;;;;;;40.96;26.50;99643.63;5092562;28;20195;-57
2022/06/03 05:58:21;;;;;;;11.25;4.95;;;;;;;41.54;26.61;99650.88;5092458;28;20195;-57
2022/06/03 06:00:58;;;;;;;8.02;4.93;;;;;;;40.75;27.51;99645.03;5092117;28;20190;-62
2022/06/03 06:03:39;;;;;;;10.15;4.45;;;;;;;41.30;26.38;99652.81;5090891;28;20234;-63
2022/06/03 06:06:20;;;;;;;8.20;4.43;;;;;;;42.02;26.51;99654.00;5092329;28;20281;-63
2022/06/03 06:08:56;;;;;;;8.40;4.80;;;;;;;41.90;25.73;99657.81;5092056;28;20194;-63
2022/06/03 06:11:33;;;;;;;7.07;4.80;;;;;;;41.06;26.58;99648.44;5092128;28;20229;-62
2022/06/03 06:14:30;;;;;;;17.45;7.75;;;;;;;40.68;27.23;99638.03;5092432;28;20234;-62
2022/06/03 06:17:02;;;;;;;5.95;5.10;;;;;;;40.01;28.05;99643.69;5091891;28;20207;-63
2022/06/03 06:19:41;;;;;;;6.45;5.18;;;;;;;39.45;28.48;99636.72;5091376;28;20267;-61
2022/06/03 06:22:19;;;;;;;10.68;5.68;;;;;;;39.60;28.57;99638.22;5091640;28;20220;-58
2022/06/03 06:25:03;;;;;;;22.92;8.70;;;;;;;39.59;28.38;99621.06;5091651;28;20643;-57
2022/06/03 06:28:04;;;;;;;31.23;9.20;;;;;;;39.65;28.46;99636.44;5091659;28;20225;-58
2022/06/03 06:31:17;;;;;;;20.13;6.88;;;;;;;39.15;29.41;99627.66;5091496;28;20327;-57
2022/06/03 06:34:15;;;;;;;17.98;6.70;;;;;;;38.96;29.58;99625.94;5091711;28;20190;-57
2022/06/03 06:37:18;;;;;;;24.75;7.97;;;;;;;38.71;29.31;99631.44;5090966;28;20204;-57
2022/06/03 06:40:02;;;;;;;11.05;5.50;;;;;;;38.54;30.29;99639.31;5091270;28;20193;-57
2022/06/03 06:42:51;;;;;;;7.65;5.80;;;;;;;38.54;29.85;99628.47;5091618;28;20191;-58
2022/06/03 06:45:36;;;;;;;9.38;5.90;;;;;;;38.42;30.31;99635.63;5088842;28;20222;-56
2022/06/03 06:48:12;;;;;;;7.07;5.65;;;;;;;37.90;31.22;99632.25;5091770;28;20217;-63
2022/06/03 06:50:47;;;;;;;7.05;6.43;;;;;;;37.61;31.65;99632.78;5091299;28;20253;-64
2022/06/03 06:53:22;;;;;;;7.95;6.93;;;;;;;37.46;31.61;99624.13;5091115;28;20285;-62
2022/06/03 06:55:56;;;;;;;10.93;6.55;;;;;;;37.21;32.17;99624.00;5091308;28;20194;-61
2022/06/03 06:58:42;;;;;;;7.85;5.20;;;;;;;37.49;31.90;99626.38;5091356;28;20611;-62
2022/06/03 07:01:11;;;;;;;9.38;5.93;;;;;;;37.78;31.30;99620.44;5091263;28;20554;-62
2022/06/03 07:03:46;;;;;;;22.75;6.13;;;;;;;37.26;31.90;99605.25;5091123;28;20206;-58
2022/06/03 07:06:19;;;;;;;6.72;5.30;;;;;;;37.11;32.39;99615.47;5091080;28;20201;-57
2022/06/03 07:08:51;;;;;;;10.98;5.60;;;;;;;36.64;33.31;99620.97;5091025;28;20203;-57
2022/06/03 07:11:25;;;;;;;8.70;4.95;;;;;;;36.76;33.00;99621.19;5090808;28;20728;-57
2022/06/03 07:13:56;;;;;;;5.30;4.80;;;;;;;37.35;32.67;99615.63;5090591;28;20194;-58
2022/06/03 07:22:21;;;;;;;6.88;5.30;;;;;;;37.34;32.81;99627.50;5080239;28;20191;-57
2022/06/03 07:25:02;;;;;;;7.45;5.32;;;;;;;36.97;32.96;99620.09;5087323;22;20220;-62
2022/06/03 07:27:36;;;;;;;7.00;5.55;;;;;;;37.47;33.38;99621.22;5030834;28;20197;-63
2022/06/03 07:30:09;;;;;;;10.60;5.95;;;;;;;38.03;32.62;99607.78;5030976;28;20829;-63
2022/06/03 07:32:42;;;;;;;10.77;6.15;;;;;;;37.83;32.38;99623.31;5031041;28;20686;-63
2022/06/03 07:35:17;;;;;;;9.85;5.30;;;;;;;38.07;32.83;99624.41;5031334;28;20659;-62
2022/06/03 07:37:54;;;;;;;9.90;5.00;;;;;;;38.03;31.76;99624.03;5030983;28;20196;-63
2022/06/03 07:40:24;;;;;;;9.40;5.40;;;;;;;38.50;32.11;99624.50;5030865;28;20200;-63
2022/06/03 07:43:03;;;;;;;6.72;4.90;;;;;;;38.81;31.18;99624.47;5021346;28;20198;-63
2022/06/03 07:45:39;;;;;;;6.93;5.55;;;;;;;39.48;30.84;99622.69;5018272;28;20220;-64
2022/06/03 07:48:11;;;;;;;7.25;5.80;;;;;;;39.29;30.51;99625.59;5015004;28;20204;-63
2022/06/03 07:50:46;;;;;;;9.00;5.10;;;;;;;39.60;30.47;99625.44;5017526;28;20231;-63
2022/06/03 07:53:18;;;;;;;6.10;5.13;;;;;;;40.07;29.74;99631.06;5030843;28;20196;-62
2022/06/03 07:55:51;;;;;;;10.85;5.15;;;;;;;40.17;29.65;99623.19;5022751;28;20204;-62
2022/06/03 07:58:23;;;;;;;7.35;5.43;;;;;;;40.33;29.79;99624.41;5019956;28;20196;-63
2022/06/03 08:00:50;;;;;;;8.23;5.82;;;;;;;40.76;28.43;99624.91;5020928;28;20216;-63
2022/06/03 08:03:19;;;;;;;6.28;5.65;;;;;;;40.71;28.14;99629.41;5029770;28;20765;-63
2022/06/03 08:05:49;;;;;;;9.43;4.88;;;;;;;41.24;27.82;99626.53;5029631;28;20205;-63
2022/06/03 08:11:12;;;;;;;6.93;5.22;;;;;;;41.81;26.46;99640.19;5029665;28;20244;-63
2022/06/03 08:13:49;;;;;;;9.90;5.10;;;;;;;41.29;27.02;99623.91;5030527;28;20192;-63
2022/06/03 08:16:25;;;;;;;9.65;5.10;;;;;;;41.53;27.35;99636.41;5030446;28;20670;-58
2022/06/03 08:18:56;;;;;;;10.50;4.88;;;;;;;41.43;26.32;99638.06;5030502;28;20196;-58
2022/06/03 08:21:27;;;;;;;13.43;4.75;;;;;;;41.08;26.53;99638.97;5030422;28;20283;-58
2022/06/03 08:23:55;;;;;;;10.48;4.93;;;;;;;40.45;27.26;99634.22;5030864;28;20345;-58
2022/06/03 08:26:27;;;;;;;7.97;4.95;;;;;;;40.56;27.19;99635.28;5034318;28;20641;-59
2022/06/03 08:29:08;;;;;;;5.97;4.80;;;;;;;40.75;26.72;99628.69;5034557;28;20193;-57
2022/06/03 08:31:36;;;;;;;7.63;4.57;;;;;;;40.68;26.84;99622.53;5034248;28;20277;-57
2022/06/03 08:34:06;;;;;;;21.90;5.93;;;;;;;40.49;27.60;99629.16;5034244;28;20192;-57
2022/06/03 08:36:38;;;;;;;43.42;8.65;;;;;;;40.11;27.83;99629.53;5034202;28;20289;-58
2022/06/03 08:39:08;;;;;;;22.85;6.25;;;;;;;39.84;28.19;99629.94;5034205;28;20196;-59
2022/06/03 08:41:47;;;;;;;14.75;6.22;;;;;;;39.33;28.76;99630.34;5034455;28;20673;-58
2022/06/03 08:44:39;;;;;;;9.35;5.32;;;;;;;38.95;28.74;99625.13;5034343;28;20591;-58
2022/06/03 08:47:12;;;;;;;5.43;4.80;;;;;;;39.03;28.49;99607.75;5034314;28;20232;-58
2022/06/03 08:49:52;;;;;;;6.75;4.80;;;;;;;39.12;28.42;99626.22;5033929;28;20197;-58
2022/06/03 08:52:25;;;;;;;5.00;4.43;;;;;;;39.20;27.59;99611.50;5033902;28;20203;-59
2022/06/03 08:54:56;;;;;;;26.65;6.40;;;;;;;39.13;28.19;99617.03;5033878;28;20200;-59
2022/06/03 08:57:33;;;;;;;8.18;4.78;;;;;;;38.89;27.79;99611.63;5033842;28;20306;-58
2022/06/03 09:00:09;;;;;;;8.20;4.20;;;;;;;38.34;28.50;99619.66;5030273;28;20315;-58
2022/06/03 09:02:42;;;;;;;4.93;4.38;;;;;;;38.14;27.88;99611.69;5022868;28;20201;-59
2022/06/03 09:05:13;;;;;;;6.95;4.35;;;;;;;37.53;29.06;99611.38;5021845;28;20197;-57
2022/06/03 09:07:47;;;;;;;5.32;4.13;;;;;;;37.42;29.04;99611.00;5021739;28;20204;-57
2022/06/03 09:10:20;;;;;;;7.05;4.60;;;;;;;37.34;29.26;99608.56;5022816;28;20196;-57
2022/06/03 09:12:56;;;;;;;5.82;4.95;;;;;;;37.54;29.68;99611.16;5023453;28;20196;-58
2022/06/03 09:15:27;;;;;;;9.90;4.53;;;;;;;37.67;29.81;99603.00;5022995;28;20204;-58
2022/06/03 09:17:59;;;;;;;5.43;4.93;;;;;;;37.92;29.22;99594.09;5030454;28;20219;-62
2022/06/03 09:20:30;;;;;;;7.13;5.00;;;;;;;38.19;28.41;99603.69;5020655;28;20216;-62
2022/06/03 09:23:01;;;;;;;9.10;5.00;;;;;;;38.25;28.12;99600.13;5021419;28;20225;-63
2022/06/03 09:25:32;;;;;;;9.57;4.78;;;;;;;38.33;26.90;99601.72;5019589;28;20233;-62
2022/06/03 09:28:03;;;;;;;6.50;4.32;;;;;;;38.73;28.02;99592.16;5021313;28;20192;-63
2022/06/03 09:30:37;;;;;;;5.22;4.60;;;;;;;38.89;26.62;99601.59;5022813;28;20213;-62
2022/06/03 09:33:07;;;;;;;7.57;5.43;;;;;;;38.83;25.51;99602.50;5022748;28;20287;-62
2022/06/03 09:35:37;;;;;;;5.70;4.53;;;;;;;38.33;26.37;99602.53;5020824;28;20221;-63
2022/06/03 09:38:07;;;;;;;6.95;5.30;;;;;;;38.74;26.20;99603.84;5018063;28;20205;-58
2022/06/03 09:40:37;;;;;;;5.60;5.13;;;;;;;39.06;25.91;99601.84;5023510;28;20196;-62
2022/06/03 09:43:10;;;;;;;6.25;4.30;;;;;;;39.09;25.28;99595.97;5024287;28;20207;-61
2022/06/03 09:45:40;;;;;;;4.80;4.40;;;;;;;38.93;25.88;99593.84;5017356;28;20239;-57
2022/06/03 09:48:09;;;;;;;6.18;5.47;;;;;;;38.98;26.11;99594.03;5017368;28;20189;-57
2022/06/03 09:50:36;;;;;;;7.53;5.45;;;;;;;38.83;25.88;99586.22;5017807;28;20215;-57
2022/06/03 09:53:07;;;;;;;6.00;4.10;;;;;;;38.18;25.52;99591.19;5020003;28;20194;-57
2022/06/03 09:55:37;;;;;;;6.55;5.90;;;;;;;37.92;25.24;99581.38;5019435;28;20843;-58
2022/06/03 09:58:06;;;;;;;5.07;4.10;;;;;;;37.86;25.92;99587.66;5018225;28;20193;-63
2022/06/03 10:00:42;;;;;;;5.93;4.68;;;;;;;38.19;26.18;99578.47;5017748;28;20186;-59
2022/06/03 10:03:09;;;;;;;6.75;6.13;;;;;;;38.13;26.17;99586.44;5018129;28;21033;-59
2022/06/03 10:05:37;;;;;;;15.00;4.97;;;;;;;37.69;25.95;99598.19;5017284;28;20212;-59
2022/06/03 10:08:08;;;;;;;4.60;4.20;;;;;;;37.80;25.92;99588.53;5018090;28;20192;-58
2022/06/03 10:13:20;;;;;;;5.80;5.20;;;;;;;37.32;26.51;99594.41;5017669;28;20209;-58
2022/06/03 10:15:53;;;;;;;9.38;5.30;;;;;;;37.67;26.56;99599.47;5024163;28;20220;-58
2022/06/03 10:18:31;;;;;;;6.32;5.03;;;;;;;37.13;26.14;99606.13;5023981;28;20237;-59
2022/06/03 10:21:00;;;;;;;4.97;4.47;;;;;;;36.70;26.47;99606.63;5017439;28;20640;-59
2022/06/03 10:23:29;;;;;;;6.00;4.40;;;;;;;36.55;26.68;99603.31;5018085;28;21578;-58
2022/06/03 10:26:01;;;;;;;5.25;3.97;;;;;;;36.67;26.66;99604.31;5016957;28;20304;-58
2022/06/03 10:28:34;;;;;;;5.63;5.07;;;;;;;36.79;26.76;99604.53;5023400;28;20197;-58
2022/06/03 10:31:06;;;;;;;6.38;4.00;;;;;;;36.43;26.81;99596.88;5023471;28;20279;-57
2022/06/03 10:33:34;;;;;;;5.00;4.15;;;;;;;36.36;26.58;99596.00;5016727;28;20225;-58
2022/06/03 10:36:03;;;;;;;9.57;4.10;;;;;;;36.26;27.04;99595.59;5016815;28;20197;-62
2022/06/03 10:38:32;;;;;;;4.72;4.22;;;;;;;36.21;27.14;99598.94;5016766;28;20297;-62
2022/06/03 10:41:05;;;;;;;12.23;11.27;;;;;;;36.21;27.49;99595.38;5015951;28;20200;-58
2022/06/03 10:43:34;;;;;;;4.80;4.20;;;;;;;36.05;27.60;99596.59;5021479;28;20198;-57
2022/06/03 10:46:14;;;;;;;5.90;5.50;;;;;;;35.87;27.48;99596.38;5019260;28;20233;-58
2022/06/03 10:48:42;;;;;;;7.18;5.60;;;;;;;35.90;27.09;99593.25;5018976;28;20213;-57
2022/06/03 10:51:18;;;;;;;11.57;4.47;;;;;;;35.82;25.74;99596.16;5020514;28;20303;-63
2022/06/03 11:02:30;;;;;;;3.65;3.35;;;;;;;35.03;26.53;99580.47;5024395;28;20200;-63
2022/06/03 11:05:09;;;;;;;3.55;3.30;;;;;;;35.04;26.72;99578.59;5021024;28;20288;-63
2022/06/03 11:07:36;;;;;;;7.55;4.10;;;;;;;35.14;27.38;99569.09;5019204;28;20198;-63
2022/06/03 11:10:07;;;;;;;3.60;3.30;;;;;;;35.12;25.95;99578.44;5011601;28;20245;-62
2022/06/03 11:12:34;;;;;;;10.75;5.07;;;;;;;35.07;25.91;99572.81;5011287;28;20226;-62
2022/06/03 11:15:01;;;;;;;4.07;3.67;;;;;;;35.05;26.25;99573.00;5011459;28;20472;-63
2022/06/03 11:17:37;;;;;;;3.70;3.50;;;;;;;34.75;25.67;99566.19;5011541;28;20202;-65
2022/06/03 11:20:19;;;;;;;3.58;3.28;;;;;;;34.65;25.72;99561.16;5011552;28;20630;-64
2022/06/03 11:22:46;;;;;;;4.40;3.38;;;;;;;34.63;25.83;99540.81;5011324;28;20198;-64
2022/06/03 11:25:17;;;;;;;6.07;3.70;;;;;;;34.99;25.99;99571.09;5011294;28;20612;-64
2022/06/03 11:27:52;;;;;;;10.25;4.07;;;;;;;35.07;25.90;99570.94;5011355;28;20288;-64
2022/06/03 11:30:28;;;;;;;4.03;3.72;;;;;;;35.05;25.86;99550.59;5011338;28;20328;-64
2022/06/03 11:33:03;;;;;;;3.67;3.42;;;;;;;35.10;25.25;99567.88;5011092;28;20378;-64
2022/06/03 11:35:38;;;;;;;3.50;3.20;;;;;;;34.88;24.76;99556.31;5011046;28;20279;-65
2022/06/03 11:38:08;;;;;;;7.38;3.95;;;;;;;34.97;24.93;99558.88;5011341;28;20204;-64
2022/06/03 11:40:40;;;;;;;3.42;3.22;;;;;;;34.75;25.44;99550.88;5011106;28;20734;-64
2022/06/03 11:43:12;;;;;;;7.35;5.63;;;;;;;34.75;25.93;99536.53;5011009;28;20209;-64
2022/06/03 11:45:44;;;;;;;4.75;3.60;;;;;;;34.85;25.33;99535.16;5010917;28;20206;-64
2022/06/03 11:48:20;;;;;;;3.90;3.55;;;;;;;35.17;25.58;99532.81;5010911;28;20202;-65
2022/06/03 11:50:47;;;;;;;3.72;3.42;;;;;;;35.26;25.86;99534.31;5010903;28;20193;-57
2022/06/03 11:53:16;;;;;;;3.90;3.40;;;;;;;35.36;26.00;99534.75;5010870;28;20202;-57
2022/06/03 11:55:43;;;;;;;3.60;3.30;;;;;;;35.24;26.18;99523.69;5010842;28;20293;-57
2022/06/03 11:58:14;;;;;;;6.00;3.80;;;;;;;35.23;26.50;99524.72;5010690;28;20206;-64
2022/06/03 12:01:02;;;;;;;4.45;4.05;;;;;;;35.18;26.34;99521.81;5010769;28;20200;-64
2022/06/03 12:03:39;;;;;;;3.60;3.40;;;;;;;35.19;26.21;99526.16;5010873;28;20675;-63
2022/06/03 12:06:12;;;;;;;6.20;4.25;;;;;;;35.23;26.70;99527.41;5014970;28;20224;-64
2022/06/03 12:08:47;;;;;;;5.22;3.95;;;;;;;35.35;26.00;99537.66;5019031;28;20217;-57
2022/06/03 12:14:20;;;;;;;5.97;3.60;;;;;;;34.94;26.19;99549.31;5025182;28;20708;-64
2022/06/03 12:16:56;;;;;;;4.05;3.58;;;;;;;34.80;26.00;99552.97;5018776;28;20196;-64
2022/06/03 12:19:42;;;;;;;3.90;3.70;;;;;;;35.03;25.92;99540.00;5018264;28;20208;-64
2022/06/03 12:22:33;;;;;;;5.25;3.72;;;;;;;35.01;26.80;99539.38;5019045;28;20229;-64
2022/06/03 12:25:01;;;;;;;4.07;3.88;;;;;;;34.95;26.80;99514.03;5019846;28;20316;-64
2022/06/03 12:27:32;;;;;;;4.22;3.47;;;;;;;34.84;26.70;99538.06;5018598;28;20282;-65
2022/06/03 12:30:20;;;;;;;21.23;5.85;;;;;;;33.91;34.67;99560.75;5017945;28;20209;-64
2022/06/03 12:32:53;;;;;;;14.25;4.65;;;;;;;32.78;38.54;99552.34;5017383;28;20213;-63
2022/06/03 12:36:05;;;;;;;19.80;5.18;;;;;;;32.84;39.81;99532.78;5019978;28;20193;-63
2022/06/03 12:39:13;;;;;;;15.98;5.07;;;;;;;32.60;39.61;99539.25;5019238;28;20221;-56
2022/06/03 12:42:09;;;;;;;16.00;4.65;;;;;;;32.36;39.32;99544.88;5019885;28;20200;-56
2022/06/03 12:44:49;;;;;;;13.40;4.50;;;;;;;32.22;39.90;99535.78;5019556;28;20232;-57
2022/06/03 12:47:29;;;;;;;13.93;4.20;;;;;;;32.34;39.98;99546.91;5019763;28;20193;-58
2022/06/03 12:49:57;;;;;;;27.45;4.75;;;;;;;32.23;39.19;99547.34;5019540;28;20206;-57
2022/06/03 12:52:41;;;;;;;6.97;4.65;;;;;;;32.21;40.29;99520.66;5018070;28;20224;-57
2022/06/03 12:55:19;;;;;;;13.95;5.45;;;;;;;32.31;40.21;99542.72;5018801;28;20678;-57
2022/06/03 12:57:50;;;;;;;5.20;4.80;;;;;;;32.32;41.35;99530.97;5018300;28;20228;-58
2022/06/03 13:00:27;;;;;;;5.00;4.60;;;;;;;32.50;40.26;99525.25;5018065;28;20199;-58
2022/06/03 13:02:56;;;;;;;7.35;4.63;;;;;;;32.59;40.11;99517.94;5018587;28;20225;-57
2022/06/03 13:05:36;;;;;;;6.43;4.47;;;;;;;32.82;38.65;99521.38;5017051;28;20224;-57
2022/06/03 13:08:07;;;;;;;5.25;4.75;;;;;;;32.67;38.48;99504.41;5018966;28;20227;-56
2022/06/03 13:11:00;;;;;;;4.55;4.30;;;;;;;32.53;38.81;99518.66;5019827;28;20686;-57
2022/06/03 13:13:43;;;;;;;5.47;4.97;;;;;;;32.42;39.43;99523.47;5019909;28;20221;-57
2022/06/03 13:16:36;;;;;;;6.38;5.03;;;;;;;32.35;39.98;99525.25;5021337;28;20308;-57
2022/06/03 13:19:42;;;;;;;7.53;5.45;;;;;;;32.36;40.44;99536.81;5013723;28;20236;-65
2022/06/03 13:22:09;;;;;;;6.80;5.10;;;;;;;32.32;40.14;99546.25;5020917;28;20221;-64